Nickel Mines, Pennsylvania
Current Conditions -  °F | °C
As of 3:15 PM on Saturday 25 Oct 2014 (Local Time) from KMQS Reporting Station
Clear Clear  
Wind Chill: 66°   Ceiling: Unl
Heat Index: 66°   Visibility: 10mi
Dew Point: 43°   Wind: 12mph
Humidity: 43%   Direction: 280°W
Pressure: 29.77"   Gusts: 21mph
Location:  39.9757°N, 76.0913°W
Report Text: KMQS 251915Z AUTO 28010G18KT 10SM CLR 19/06 A2977 RMK AO2
Loading
Personal Weather Stations






























Interactive Weather Map
Tropical Storm Tracking
New forecast layout! Learn more

10-Day Weather Forecast

Advertisements
Track Severe Weather on mobile